sensor_id;sensor_type;location;lat;lon;timestamp;pressure;altitude;pressure_sealevel;temperature;humidity
72498;BME280;60522;52.536;5.702;2022-12-29T00:01:26;99932.50;;;16.82;53.62
72498;BME280;60522;52.536;5.702;2022-12-29T00:03:52;99937.50;;;16.80;53.67
72498;BME280;60522;52.536;5.702;2022-12-29T00:06:17;99909.38;;;16.65;53.68
72498;BME280;60522;52.536;5.702;2022-12-29T00:08:43;99932.13;;;16.84;53.49
72498;BME280;60522;52.536;5.702;2022-12-29T00:11:13;99903.53;;;16.63;53.54
72498;BME280;60522;52.536;5.702;2022-12-29T00:13:39;99892.66;;;16.63;53.65
72498;BME280;60522;52.536;5.702;2022-12-29T00:16:23;99918.53;;;16.84;53.57
72498;BME280;60522;52.536;5.702;2022-12-29T00:18:49;99876.69;;;16.58;53.66
72498;BME280;60522;52.536;5.702;2022-12-29T00:21:16;99914.66;;;16.81;53.65
72498;BME280;60522;52.536;5.702;2022-12-29T00:24:00;99882.59;;;16.64;53.66
72498;BME280;60522;52.536;5.702;2022-12-29T00:26:45;99892.03;;;16.73;53.64
72498;BME280;60522;52.536;5.702;2022-12-29T00:29:28;99886.69;;;16.81;53.53
72498;BME280;60522;52.536;5.702;2022-12-29T00:32:12;99883.97;;;16.81;53.72
72498;BME280;60522;52.536;5.702;2022-12-29T00:34:56;99880.50;;;16.80;53.76
72498;BME280;60522;52.536;5.702;2022-12-29T00:37:45;99876.94;;;16.76;54.00
72498;BME280;60522;52.536;5.702;2022-12-29T00:40:29;99866.34;;;16.67;53.57
72498;BME280;60522;52.536;5.702;2022-12-29T00:43:13;99876.63;;;16.81;53.52
72498;BME280;60522;52.536;5.702;2022-12-29T00:45:57;99866.91;;;16.80;53.44
72498;BME280;60522;52.536;5.702;2022-12-29T00:48:23;99866.47;;;16.78;53.53
72498;BME280;60522;52.536;5.702;2022-12-29T00:51:07;99867.69;;;16.81;53.56
72498;BME280;60522;52.536;5.702;2022-12-29T00:53:33;99851.38;;;16.81;53.60
72498;BME280;60522;52.536;5.702;2022-12-29T00:55:59;99854.09;;;16.81;53.58
72498;BME280;60522;52.536;5.702;2022-12-29T00:58:27;99844.41;;;16.80;53.84
72498;BME280;60522;52.536;5.702;2022-12-29T01:01:01;99850.63;;;16.80;53.78
72498;BME280;60522;52.536;5.702;2022-12-29T01:03:26;99831.63;;;16.80;53.60
72498;BME280;60522;52.536;5.702;2022-12-29T01:05:52;99817.66;;;16.82;53.41
72498;BME280;60522;52.536;5.702;2022-12-29T01:08:17;99825.75;;;16.78;53.70
72498;BME280;60522;52.536;5.702;2022-12-29T01:10:42;99829.25;;;16.79;53.57
72498;BME280;60522;52.536;5.702;2022-12-29T01:13:08;99816.06;;;16.77;53.82
72498;BME280;60522;52.536;5.702;2022-12-29T01:15:33;99812.59;;;16.80;53.78
72498;BME280;60522;52.536;5.702;2022-12-29T01:17:58;99779.78;;;16.62;53.64
72498;BME280;60522;52.536;5.702;2022-12-29T01:20:24;99813.38;;;16.81;53.73
72498;BME280;60522;52.536;5.702;2022-12-29T01:22:49;99803.31;;;16.81;53.59
72498;BME280;60522;52.536;5.702;2022-12-29T01:25:14;99797.88;;;16.81;53.69
72498;BME280;60522;52.536;5.702;2022-12-29T01:27:40;99793.59;;;16.80;53.60
72498;BME280;60522;52.536;5.702;2022-12-29T01:30:05;99795.16;;;16.81;53.68
72498;BME280;60522;52.536;5.702;2022-12-29T01:32:31;99779.59;;;16.78;53.55
72498;BME280;60522;52.536;5.702;2022-12-29T01:34:56;99793.59;;;16.80;53.61
72498;BME280;60522;52.536;5.702;2022-12-29T01:37:23;99796.31;;;16.80;53.64
72498;BME280;60522;52.536;5.702;2022-12-29T01:39:48;99801.75;;;16.80;53.67
72498;BME280;60522;52.536;5.702;2022-12-29T01:42:18;99795.94;;;16.82;53.82
72498;BME280;60522;52.536;5.702;2022-12-29T01:44:52;99797.09;;;16.81;53.88
72498;BME280;60522;52.536;5.702;2022-12-29T01:47:40;99800.97;;;16.80;53.73
72498;BME280;60522;52.536;5.702;2022-12-29T01:50:14;99790.09;;;16.80;53.82
72498;BME280;60522;52.536;5.702;2022-12-29T01:52:46;99795.94;;;16.82;53.69
72498;BME280;60522;52.536;5.702;2022-12-29T01:55:13;99800.97;;;16.80;53.65
72498;BME280;60522;52.536;5.702;2022-12-29T01:57:41;99810.66;;;16.81;53.62
72498;BME280;60522;52.536;5.702;2022-12-29T02:00:10;99801.75;;;16.80;53.65
72498;BME280;60522;52.536;5.702;2022-12-29T02:02:36;99807.19;;;16.80;53.79
72498;BME280;60522;52.536;5.702;2022-12-29T02:05:07;99797.44;;;16.79;53.75
72498;BME280;60522;52.536;5.702;2022-12-29T02:07:34;99809.47;;;16.78;53.59
72498;BME280;60522;52.536;5.702;2022-12-29T02:10:00;99814.53;;;16.80;53.65
72498;BME280;60522;52.536;5.702;2022-12-29T02:12:26;99833.19;;;16.81;53.63
72498;BME280;60522;52.536;5.702;2022-12-29T02:14:55;99825.41;;;16.80;53.78
72498;BME280;60522;52.536;5.702;2022-12-29T02:17:45;99812.97;;;16.79;53.91
72498;BME280;60522;52.536;5.702;2022-12-29T02:36:45;99804.63;;;16.64;53.88
72498;BME280;60522;52.536;5.702;2022-12-29T02:42:13;99812.53;;;16.76;53.49
72498;BME280;60522;52.536;5.702;2022-12-29T02:52:36;99803.22;;;16.74;54.03
72498;BME280;60522;52.536;5.702;2022-12-29T02:55:04;99807.91;;;16.77;53.75
72498;BME280;60522;52.536;5.702;2022-12-29T02:57:33;99808.66;;;16.74;53.72
72498;BME280;60522;52.536;5.702;2022-12-29T03:03:18;99824.19;;;16.77;53.96
72498;BME280;60522;52.536;5.702;2022-12-29T03:16:23;99775.84;;;16.56;53.78
72498;BME280;60522;52.536;5.702;2022-12-29T03:19:14;99804.75;;;16.75;53.89
72498;BME280;60522;52.536;5.702;2022-12-29T03:21:45;99802.06;;;16.75;54.05
72498;BME280;60522;52.536;5.702;2022-12-29T03:24:38;99810.19;;;16.75;53.89
72498;BME280;60522;52.536;5.702;2022-12-29T03:27:06;99796.63;;;16.75;53.84
72498;BME280;60522;52.536;5.702;2022-12-29T03:29:38;99802.47;;;16.77;53.82
72498;BME280;60522;52.536;5.702;2022-12-29T03:32:07;99810.19;;;16.75;53.91
72498;BME280;60522;52.536;5.702;2022-12-29T03:34:35;99794.72;;;16.75;53.61
72498;BME280;60522;52.536;5.702;2022-12-29T03:37:06;99819.50;;;16.74;53.82
72498;BME280;60522;52.536;5.702;2022-12-29T03:39:33;99800.50;;;16.74;53.67
72498;BME280;60522;52.536;5.702;2022-12-29T03:42:02;99800.88;;;16.72;53.81
72498;BME280;60522;52.536;5.702;2022-12-29T03:44:35;99804.75;;;16.75;53.95
72498;BME280;60522;52.536;5.702;2022-12-29T03:47:02;99787.19;;;16.65;53.77
72498;BME280;60522;52.536;5.702;2022-12-29T03:49:28;99804.75;;;16.75;53.60
72498;BME280;60522;52.536;5.702;2022-12-29T03:51:53;99807.06;;;16.73;53.87
72498;BME280;60522;52.536;5.702;2022-12-29T03:54:18;99804.75;;;16.75;53.70
72498;BME280;60522;52.536;5.702;2022-12-29T03:56:44;99807.84;;;16.73;53.66
72498;BME280;60522;52.536;5.702;2022-12-29T03:59:09;99793.41;;;16.66;53.94
72498;BME280;60522;52.536;5.702;2022-12-29T04:01:34;99800.50;;;16.74;53.86
72498;BME280;60522;52.536;5.702;2022-12-29T04:04:00;99806.34;;;16.76;53.76
72498;BME280;60522;52.536;5.702;2022-12-29T04:06:25;99803.22;;;16.74;53.67
72498;BME280;60522;52.536;5.702;2022-12-29T04:08:51;99797.78;;;16.74;53.84
72498;BME280;60522;52.536;5.702;2022-12-29T04:11:16;99774.28;;;16.55;53.82
72498;BME280;60522;52.536;5.702;2022-12-29T04:13:41;99804.72;;;16.71;53.95
72498;BME280;60522;52.536;5.702;2022-12-29T04:16:07;99837.34;;;16.75;54.05
72498;BME280;60522;52.536;5.702;2022-12-29T04:18:33;99822.22;;;16.74;53.90
72498;BME280;60522;52.536;5.702;2022-12-29T04:20:58;99810.56;;;16.73;53.84
72498;BME280;60522;52.536;5.702;2022-12-29T04:23:29;99810.56;;;16.73;53.93
72498;BME280;60522;52.536;5.702;2022-12-29T04:25:54;99825.72;;;16.74;53.66
72498;BME280;60522;52.536;5.702;2022-12-29T04:28:20;99803.84;;;16.64;53.79
72498;BME280;60522;52.536;5.702;2022-12-29T04:30:46;99823.38;;;16.73;53.97
72498;BME280;60522;52.536;5.702;2022-12-29T04:33:12;99824.13;;;16.73;53.69
72498;BME280;60522;52.536;5.702;2022-12-29T04:35:37;99822.22;;;16.74;53.83
72498;BME280;60522;52.536;5.702;2022-12-29T04:38:02;99817.16;;;16.72;53.65
72498;BME280;60522;52.536;5.702;2022-12-29T04:40:28;99811.72;;;16.72;53.81
72498;BME280;60522;52.536;5.702;2022-12-29T04:42:54;99814.44;;;16.72;53.83
72498;BME280;60522;52.536;5.702;2022-12-29T04:45:19;99802.41;;;16.73;54.00
72498;BME280;60522;52.536;5.702;2022-12-29T04:47:44;99795.81;;;16.71;53.75
72498;BME280;60522;52.536;5.702;2022-12-29T04:50:10;99781.06;;;16.72;53.61
72498;BME280;60522;52.536;5.702;2022-12-29T04:52:35;99777.09;;;16.62;54.00
72498;BME280;60522;52.536;5.702;2022-12-29T04:55:01;99797.72;;;16.70;53.69
72498;BME280;60522;52.536;5.702;2022-12-29T04:57:26;99802.41;;;16.73;53.78
72498;BME280;60522;52.536;5.702;2022-12-29T04:59:52;99792.72;;;16.72;53.94
72498;BME280;60522;52.536;5.702;2022-12-29T05:02:17;99804.38;;;16.73;53.76
72498;BME280;60522;52.536;5.702;2022-12-29T05:04:43;99802.78;;;16.72;53.81
72498;BME280;60522;52.536;5.702;2022-12-29T05:07:08;99804.38;;;16.73;53.66
72498;BME280;60522;52.536;5.702;2022-12-29T05:09:34;99801.25;;;16.71;53.98
72498;BME280;60522;52.536;5.702;2022-12-29T05:11:59;99815.22;;;16.73;53.80
72498;BME280;60522;52.536;5.702;2022-12-29T05:14:24;99826.09;;;16.73;53.72
72498;BME280;60522;52.536;5.702;2022-12-29T05:16:50;99819.44;;;16.70;53.70
72498;BME280;60522;52.536;5.702;2022-12-29T05:19:15;99823.72;;;16.71;54.00
72498;BME280;60522;52.536;5.702;2022-12-29T05:21:41;99835.38;;;16.72;53.69
72498;BME280;60522;52.536;5.702;2022-12-29T05:24:07;99833.47;;;16.72;53.71
72498;BME280;60522;52.536;5.702;2022-12-29T05:26:32;99833.47;;;16.72;53.60
72498;BME280;60522;52.536;5.702;2022-12-29T05:28:58;99818.31;;;16.71;53.67
72498;BME280;60522;52.536;5.702;2022-12-29T05:31:23;99826.09;;;16.73;53.64
72498;BME280;60522;52.536;5.702;2022-12-29T05:33:48;99803.28;;;16.51;53.65
72498;BME280;60522;52.536;5.702;2022-12-29T05:36:14;99839.66;;;16.73;53.70
72498;BME280;60522;52.536;5.702;2022-12-29T05:38:39;99839.25;;;16.71;53.79
72498;BME280;60522;52.536;5.702;2022-12-29T05:41:04;99829.94;;;16.72;53.84
72498;BME280;60522;52.536;5.702;2022-12-29T05:43:30;99839.25;;;16.71;53.64
72498;BME280;60522;52.536;5.702;2022-12-29T05:45:56;99851.63;;;16.68;53.74
72498;BME280;60522;52.536;5.702;2022-12-29T05:48:22;99843.44;;;16.65;53.81
72498;BME280;60522;52.536;5.702;2022-12-29T05:50:48;99813.63;;;16.41;53.67
72498;BME280;60522;52.536;5.702;2022-12-29T05:53:14;99836.06;;;16.65;53.78
72498;BME280;60522;52.536;5.702;2022-12-29T05:55:40;99857.06;;;16.68;53.59
72498;BME280;60522;52.536;5.702;2022-12-29T05:58:05;99857.47;;;16.70;53.61
72498;BME280;60522;52.536;5.702;2022-12-29T06:00:30;99864.81;;;16.70;53.50
72498;BME280;60522;52.536;5.702;2022-12-29T06:02:56;99863.25;;;16.69;53.65
72498;BME280;60522;52.536;5.702;2022-12-29T06:05:21;99860.44;;;16.62;53.72
72498;BME280;60522;52.536;5.702;2022-12-29T06:07:46;99857.06;;;16.68;53.66
72498;BME280;60522;52.536;5.702;2022-12-29T06:10:12;99863.69;;;16.71;53.55
72498;BME280;60522;52.536;5.702;2022-12-29T06:12:37;99860.13;;;16.67;53.63
72498;BME280;60522;52.536;5.702;2022-12-29T06:15:03;99871.03;;;16.70;53.56
72498;BME280;60522;52.536;5.702;2022-12-29T06:17:28;99877.66;;;16.73;53.56
72498;BME280;60522;52.536;5.702;2022-12-29T06:19:54;99863.22;;;16.65;53.65
72498;BME280;60522;52.536;5.702;2022-12-29T06:22:19;99876.47;;;16.70;53.60
72498;BME280;60522;52.536;5.702;2022-12-29T06:24:45;99870.25;;;16.70;53.48
72498;BME280;60522;52.536;5.702;2022-12-29T06:27:10;99881.13;;;16.70;53.56
72498;BME280;60522;52.536;5.702;2022-12-29T06:29:36;99888.06;;;16.67;53.53
72498;BME280;60522;52.536;5.702;2022-12-29T06:32:03;99861.75;;;16.45;53.53
72498;BME280;60522;52.536;5.702;2022-12-29T06:34:29;99893.13;;;16.69;53.45
72498;BME280;60522;52.536;5.702;2022-12-29T06:36:54;99876.63;;;16.54;53.63
72498;BME280;60522;52.536;5.702;2022-12-29T06:39:20;99906.31;;;16.70;53.56
72498;BME280;60522;52.536;5.702;2022-12-29T06:41:45;99903.16;;;16.65;53.44
72498;BME280;60522;52.536;5.702;2022-12-29T06:44:10;99905.91;;;16.68;53.51
72498;BME280;60522;52.536;5.702;2022-12-29T06:46:36;99908.63;;;16.68;53.59
72498;BME280;60522;52.536;5.702;2022-12-29T06:49:01;99892.09;;;16.50;53.52
72498;BME280;60522;52.536;5.702;2022-12-29T06:51:27;99902.44;;;16.68;53.56
72498;BME280;60522;52.536;5.702;2022-12-29T06:53:52;99905.56;;;16.70;53.51
72498;BME280;60522;52.536;5.702;2022-12-29T06:56:18;99911.34;;;16.68;53.42
72498;BME280;60522;52.536;5.702;2022-12-29T06:58:43;99917.91;;;16.67;53.49
72498;BME280;60522;52.536;5.702;2022-12-29T07:01:08;99900.50;;;16.68;53.44
72498;BME280;60522;52.536;5.702;2022-12-29T07:03:34;99892.72;;;16.67;53.50
72498;BME280;60522;52.536;5.702;2022-12-29T07:05:59;99920.63;;;16.67;53.53
72498;BME280;60522;52.536;5.702;2022-12-29T07:08:24;99911.72;;;16.67;53.65
72498;BME280;60522;52.536;5.702;2022-12-29T07:10:50;99930.72;;;16.67;53.26
72498;BME280;60522;52.536;5.702;2022-12-29T07:13:15;99919.84;;;16.67;53.49
72498;BME280;60522;52.536;5.702;2022-12-29T07:15:41;99923.34;;;16.67;53.47
72498;BME280;60522;52.536;5.702;2022-12-29T07:18:06;99921.00;;;16.66;53.47
72498;BME280;60522;52.536;5.702;2022-12-29T07:20:32;99923.34;;;16.67;53.43
72498;BME280;60522;52.536;5.702;2022-12-29T07:22:58;99898.75;;;16.56;53.38
72498;BME280;60522;52.536;5.702;2022-12-29T07:25:23;99921.00;;;16.66;53.57
72498;BME280;60522;52.536;5.702;2022-12-29T07:27:49;99917.50;;;16.65;53.45
72498;BME280;60522;52.536;5.702;2022-12-29T07:30:15;99918.72;;;16.68;53.35
72498;BME280;60522;52.536;5.702;2022-12-29T07:32:41;99907.44;;;16.66;53.46
72498;BME280;60522;52.536;5.702;2022-12-29T07:35:07;99913.22;;;16.64;53.61
72498;BME280;60522;52.536;5.702;2022-12-29T07:37:33;99919.84;;;16.67;53.51
72498;BME280;60522;52.536;5.702;2022-12-29T07:39:58;99916.38;;;16.66;53.35
72498;BME280;60522;52.536;5.702;2022-12-29T07:42:23;99915.94;;;16.64;53.46
72498;BME280;60522;52.536;5.702;2022-12-29T07:44:49;99897.50;;;16.50;53.41
72498;BME280;60522;52.536;5.702;2022-12-29T07:47:14;99923.72;;;16.66;53.33
72498;BME280;60522;52.536;5.702;2022-12-29T07:49:39;99935.38;;;16.66;53.54
72498;BME280;60522;52.536;5.702;2022-12-29T07:52:05;99914.44;;;16.67;53.46
72498;BME280;60522;52.536;5.702;2022-12-29T07:54:30;99932.66;;;16.66;53.40
72498;BME280;60522;52.536;5.702;2022-12-29T07:56:56;99893.59;;;16.48;53.35
72498;BME280;60522;52.536;5.702;2022-12-29T07:59:22;99922.56;;;16.67;53.39
72498;BME280;60522;52.536;5.702;2022-12-29T08:01:48;99928.38;;;16.65;53.36
72498;BME280;60522;52.536;5.702;2022-12-29T08:04:13;99930.72;;;16.67;53.17
72498;BME280;60522;52.536;5.702;2022-12-29T08:06:38;99933.44;;;16.67;53.27
72498;BME280;60522;52.536;5.702;2022-12-29T08:09:04;99946.59;;;16.65;53.47
72498;BME280;60522;52.536;5.702;2022-12-29T08:11:29;99926.88;;;16.68;53.12
72498;BME280;60522;52.536;5.702;2022-12-29T08:13:54;99933.06;;;16.68;53.37
72498;BME280;60522;52.536;5.702;2022-12-29T08:16:20;99932.19;;;16.61;53.34
72498;BME280;60522;52.536;5.702;2022-12-29T08:18:45;99937.28;;;16.66;53.24
72498;BME280;60522;52.536;5.702;2022-12-29T08:21:11;99937.72;;;16.68;53.34
72498;BME280;60522;52.536;5.702;2022-12-29T08:23:36;99888.38;;;16.35;53.19
72498;BME280;60522;52.536;5.702;2022-12-29T08:26:03;99925.66;;;16.65;53.27
72498;BME280;60522;52.536;5.702;2022-12-29T08:28:30;99924.03;;;16.61;53.34
72498;BME280;60522;52.536;5.702;2022-12-29T08:31:02;99942.72;;;16.66;53.26
72498;BME280;60522;52.536;5.702;2022-12-29T08:33:28;99932.28;;;16.68;53.09
72498;BME280;60522;52.536;5.702;2022-12-29T08:36:01;99923.31;;;16.64;53.22
72498;BME280;60522;52.536;5.702;2022-12-29T08:38:28;99927.59;;;16.65;53.43
72498;BME280;60522;52.536;5.702;2022-12-29T08:40:54;99938.09;;;16.66;53.29
72498;BME280;60522;52.536;5.702;2022-12-29T08:43:19;99934.56;;;16.66;53.16
72498;BME280;60522;52.536;5.702;2022-12-29T08:45:45;99945.44;;;16.66;53.12
72498;BME280;60522;52.536;5.702;2022-12-29T08:48:10;99922.16;;;16.65;53.24
72498;BME280;60522;52.536;5.702;2022-12-29T08:50:35;99945.03;;;16.64;53.27
72498;BME280;60522;52.536;5.702;2022-12-29T08:53:01;99952.44;;;16.67;53.21
72498;BME280;60522;52.536;5.702;2022-12-29T08:55:26;99949.31;;;16.65;53.18
72498;BME280;60522;52.536;5.702;2022-12-29T08:57:51;99945.44;;;16.66;53.17
72498;BME280;60522;52.536;5.702;2022-12-29T09:00:17;99940.81;;;16.66;53.31
72498;BME280;60522;52.536;5.702;2022-12-29T09:02:43;99952.84;;;16.69;53.31
72498;BME280;60522;52.536;5.702;2022-12-29T09:05:09;99949.31;;;16.65;53.22
72498;BME280;60522;52.536;5.702;2022-12-29T09:07:35;99936.00;;;16.56;53.19
72498;BME280;60522;52.536;5.702;2022-12-29T09:10:00;99941.16;;;16.65;53.12
72498;BME280;60522;52.536;5.702;2022-12-29T09:12:26;99943.09;;;16.64;53.09
72498;BME280;60522;52.536;5.702;2022-12-29T09:14:51;99947.78;;;16.67;53.06
72498;BME280;60522;52.536;5.702;2022-12-29T09:17:17;99955.53;;;16.65;53.19
72498;BME280;60522;52.536;5.702;2022-12-29T09:20:01;99942.69;;;16.62;53.21
72498;BME280;60522;52.536;5.702;2022-12-29T09:22:26;99938.75;;;16.59;53.19
72498;BME280;60522;52.536;5.702;2022-12-29T09:24:51;99967.97;;;16.66;53.20
72498;BME280;60522;52.536;5.702;2022-12-29T09:27:17;99959.44;;;16.68;53.28
72498;BME280;60522;52.536;5.702;2022-12-29T09:29:42;99970.22;;;16.64;53.13
72498;BME280;60522;52.536;5.702;2022-12-29T09:32:07;99974.94;;;16.67;53.07
72498;BME280;60522;52.536;5.702;2022-12-29T09:34:33;99970.66;;;16.66;53.26
72498;BME280;60522;52.536;5.702;2022-12-29T09:36:58;99989.31;;;16.68;53.12
72498;BME280;60522;52.536;5.702;2022-12-29T09:39:24;99995.88;;;16.67;53.16
72498;BME280;60522;52.536;5.702;2022-12-29T09:41:57;99981.53;;;16.66;53.25
72498;BME280;60522;52.536;5.702;2022-12-29T09:47:13;100002.44;;;16.66;53.08
72498;BME280;60522;52.536;5.702;2022-12-29T09:49:44;100012.16;;;16.67;52.95
72498;BME280;60522;52.536;5.702;2022-12-29T09:52:23;99981.16;;;16.45;53.01
72498;BME280;60522;52.536;5.702;2022-12-29T09:54:55;99996.84;;;16.55;53.10
72498;BME280;60522;52.536;5.702;2022-12-29T09:57:26;100021.88;;;16.68;53.01
72498;BME280;60522;52.536;5.702;2022-12-29T09:59:57;100018.75;;;16.66;53.08
72498;BME280;60522;52.536;5.702;2022-12-29T10:02:38;100023.44;;;16.69;53.14
72498;BME280;60522;52.536;5.702;2022-12-29T10:05:16;100049.09;;;16.71;52.94
72498;BME280;60522;52.536;5.702;2022-12-29T10:07:59;100011.56;;;16.54;53.03
72498;BME280;60522;52.536;5.702;2022-12-29T10:10:40;100045.97;;;16.69;53.00
72498;BME280;60522;52.536;5.702;2022-12-29T10:16:18;100042.88;;;16.71;52.99
72498;BME280;60522;52.536;5.702;2022-12-29T10:21:48;100055.28;;;16.72;52.95
72498;BME280;60522;52.536;5.702;2022-12-29T10:24:18;100061.53;;;16.72;52.85
72498;BME280;60522;52.536;5.702;2022-12-29T10:26:46;100056.47;;;16.71;53.01
72498;BME280;60522;52.536;5.702;2022-12-29T10:31:49;100073.16;;;16.73;52.89
72498;BME280;60522;52.536;5.702;2022-12-29T10:34:23;100079.81;;;16.75;52.87
72498;BME280;60522;52.536;5.702;2022-12-29T10:36:57;100066.97;;;16.72;52.94
72498;BME280;60522;52.536;5.702;2022-12-29T10:39:32;100079.31;;;16.70;52.76
72498;BME280;60522;52.536;5.702;2022-12-29T10:42:03;100084.81;;;16.73;52.97
72498;BME280;60522;52.536;5.702;2022-12-29T10:44:33;100084.38;;;16.71;52.94
72498;BME280;60522;52.536;5.702;2022-12-29T10:47:02;100097.19;;;16.71;52.72
72498;BME280;60522;52.536;5.702;2022-12-29T10:49:30;100097.19;;;16.71;52.94
72498;BME280;60522;52.536;5.702;2022-12-29T10:51:59;100111.97;;;16.73;52.93
72498;BME280;60522;52.536;5.702;2022-12-29T10:59:49;100130.19;;;16.73;53.03
72498;BME280;60522;52.536;5.702;2022-12-29T11:05:33;100142.63;;;16.74;52.84
72498;BME280;60522;52.536;5.702;2022-12-29T11:08:08;100152.69;;;16.73;52.82
72498;BME280;60522;52.536;5.702;2022-12-29T11:10:40;100156.19;;;16.74;52.89
72498;BME280;60522;52.536;5.702;2022-12-29T11:15:48;100135.06;;;16.64;52.95
72498;BME280;60522;52.536;5.702;2022-12-29T11:18:37;100155.84;;;16.75;52.89
72498;BME280;60522;52.536;5.702;2022-12-29T11:21:25;100122.94;;;16.57;52.87
72498;BME280;60522;52.536;5.702;2022-12-29T11:23:56;100156.56;;;16.72;52.86
72498;BME280;60522;52.536;5.702;2022-12-29T11:26:23;100161.63;;;16.74;52.82
72498;BME280;60522;52.536;5.702;2022-12-29T11:31:53;100166.69;;;16.75;52.88
72498;BME280;60522;52.536;5.702;2022-12-29T11:34:34;100179.13;;;16.76;52.83
72498;BME280;60522;52.536;5.702;2022-12-29T11:42:37;100186.56;;;16.80;52.71
72498;BME280;60522;52.536;5.702;2022-12-29T11:47:47;100194.72;;;16.80;52.79
72498;BME280;60522;52.536;5.702;2022-12-29T11:50:34;100206.78;;;16.82;52.62
72498;BME280;60522;52.536;5.702;2022-12-29T11:53:25;100209.50;;;16.82;52.80
72498;BME280;60522;52.536;5.702;2022-12-29T11:55:55;100218.44;;;16.83;52.77
72498;BME280;60522;52.536;5.702;2022-12-29T11:58:31;100218.09;;;16.84;52.69
72498;BME280;60522;52.536;5.702;2022-12-29T12:01:06;100218.84;;;16.85;52.57
72498;BME280;60522;52.536;5.702;2022-12-29T12:03:36;100224.66;;;16.83;52.60
72498;BME280;60522;52.536;5.702;2022-12-29T12:06:03;100241.34;;;16.85;52.76
72498;BME280;60522;52.536;5.702;2022-12-29T12:08:44;100227.78;;;16.85;52.76
72498;BME280;60522;52.536;5.702;2022-12-29T12:16:55;100235.44;;;16.80;52.63
72498;BME280;60522;52.536;5.702;2022-12-29T12:19:43;100241.72;;;16.84;52.78
72498;BME280;60522;52.536;5.702;2022-12-29T12:25:03;100255.28;;;16.84;52.77
72498;BME280;60522;52.536;5.702;2022-12-29T12:30:15;100256.47;;;16.83;52.67
72498;BME280;60522;52.536;5.702;2022-12-29T12:41:09;100264.25;;;16.84;52.61
72498;BME280;60522;52.536;5.702;2022-12-29T12:55:05;100279.75;;;16.84;52.67
72498;BME280;60522;52.536;5.702;2022-12-29T12:58:04;100275.88;;;16.85;52.63
72498;BME280;60522;52.536;5.702;2022-12-29T13:08:55;100292.19;;;16.85;52.66
72498;BME280;60522;52.536;5.702;2022-12-29T13:11:33;100294.13;;;16.84;52.71
72498;BME280;60522;52.536;5.702;2022-12-29T13:14:12;100291.41;;;16.84;52.71
72498;BME280;60522;52.536;5.702;2022-12-29T13:19:28;100301.47;;;16.84;52.67
72498;BME280;60522;52.536;5.702;2022-12-29T13:21:59;100300.69;;;16.83;52.64
72498;BME280;60522;52.536;5.702;2022-12-29T13:30:18;100317.34;;;16.82;52.60
72498;BME280;60522;52.536;5.702;2022-12-29T13:33:05;100304.75;;;16.73;52.56
72498;BME280;60522;52.536;5.702;2022-12-29T13:38:13;100318.94;;;16.83;52.77
72498;BME280;60522;52.536;5.702;2022-12-29T13:40:45;100322.78;;;16.82;52.55
72498;BME280;60522;52.536;5.702;2022-12-29T13:43:13;100320.41;;;16.80;52.70
72498;BME280;60522;52.536;5.702;2022-12-29T13:45:40;100328.56;;;16.80;52.72
72498;BME280;60522;52.536;5.702;2022-12-29T13:48:21;100329.78;;;16.83;52.82
72498;BME280;60522;52.536;5.702;2022-12-29T13:50:53;100309.25;;;16.66;52.71
72498;BME280;60522;52.536;5.702;2022-12-29T13:56:30;100339.06;;;16.82;52.56
72498;BME280;60522;52.536;5.702;2022-12-29T13:59:36;100341.78;;;16.82;52.70
72498;BME280;60522;52.536;5.702;2022-12-29T14:04:55;100321.25;;;16.65;52.70
72498;BME280;60522;52.536;5.702;2022-12-29T14:07:21;100341.00;;;16.81;52.65
72498;BME280;60522;52.536;5.702;2022-12-29T14:09:56;100337.13;;;16.82;52.60
72498;BME280;60522;52.536;5.702;2022-12-29T14:12:32;100343.72;;;16.81;52.60
72498;BME280;60522;52.536;5.702;2022-12-29T14:15:15;100350.66;;;16.79;52.77
72498;BME280;60522;52.536;5.702;2022-12-29T14:18:02;100304.47;;;16.59;52.46
72498;BME280;60522;52.536;5.702;2022-12-29T14:20:29;100338.56;;;16.76;52.76
72498;BME280;60522;52.536;5.702;2022-12-29T14:28:37;100339.78;;;16.79;52.66
72498;BME280;60522;52.536;5.702;2022-12-29T14:31:05;100334.34;;;16.79;52.82
72498;BME280;60522;52.536;5.702;2022-12-29T14:36:35;100349.84;;;16.78;52.60
72498;BME280;60522;52.536;5.702;2022-12-29T14:39:01;100352.22;;;16.80;52.68
72498;BME280;60522;52.536;5.702;2022-12-29T14:41:38;100351.44;;;16.79;52.62
72498;BME280;60522;52.536;5.702;2022-12-29T14:46:55;100351.00;;;16.77;52.58
72498;BME280;60522;52.536;5.702;2022-12-29T14:49:28;100350.13;;;16.73;52.71
72498;BME280;60522;52.536;5.702;2022-12-29T14:52:14;100317.59;;;16.57;52.53
72498;BME280;60522;52.536;5.702;2022-12-29T14:54:45;100322.25;;;16.56;52.73
72498;BME280;60522;52.536;5.702;2022-12-29T14:59:57;100361.00;;;16.73;52.61
72498;BME280;60522;52.536;5.702;2022-12-29T15:02:26;100350.13;;;16.73;52.90
72498;BME280;60522;52.536;5.702;2022-12-29T15:04:59;100345.41;;;16.70;52.87
72498;BME280;60522;52.536;5.702;2022-12-29T15:07:26;100353.97;;;16.72;52.72
72498;BME280;60522;52.536;5.702;2022-12-29T15:09:58;100357.84;;;16.71;52.76
72498;BME280;60522;52.536;5.702;2022-12-29T15:12:41;100356.69;;;16.72;52.62
72498;BME280;60522;52.536;5.702;2022-12-29T15:17:46;100336.88;;;16.52;52.77
72498;BME280;60522;52.536;5.702;2022-12-29T15:20:29;100338.81;;;16.51;52.78
72498;BME280;60522;52.536;5.702;2022-12-29T15:23:00;100363.66;;;16.69;52.85
72498;BME280;60522;52.536;5.702;2022-12-29T15:25:27;100369.50;;;16.71;52.74
72498;BME280;60522;52.536;5.702;2022-12-29T15:27:57;100368.72;;;16.71;52.82
72498;BME280;60522;52.536;5.702;2022-12-29T15:30:25;100361.72;;;16.70;52.87
72498;BME280;60522;52.536;5.702;2022-12-29T15:32:51;100373.34;;;16.70;52.77
72498;BME280;60522;52.536;5.702;2022-12-29T15:37:54;100362.84;;;16.69;52.85
72498;BME280;60522;52.536;5.702;2022-12-29T15:40:37;100356.28;;;16.70;52.46